sensor_id;sensor_type;location;lat;lon;timestamp;pressure;altitude;pressure_sealevel;temperature;humidity
79118;BME280;68523;51.336;-0.846;2023-07-29T00:00:00;99655.0;;;16.22;89.5
79118;BME280;68523;51.336;-0.846;2023-07-29T00:03:00;99645.0;;;16.20;89.4
79118;BME280;68523;51.336;-0.846;2023-07-29T00:06:00;99645.0;;;16.20;89.5
79118;BME280;68523;51.336;-0.846;2023-07-29T00:09:00;99645.0;;;16.19;89.4
79118;BME280;68523;51.336;-0.846;2023-07-29T00:12:00;99635.0;;;16.17;89.5
79118;BME280;68523;51.336;-0.846;2023-07-29T00:15:00;99635.0;;;16.19;89.4
79118;BME280;68523;51.336;-0.846;2023-07-29T00:18:00;99635.0;;;16.20;89.4
79118;BME280;68523;51.336;-0.846;2023-07-29T00:21:00;99645.0;;;16.19;89.5
79118;BME280;68523;51.336;-0.846;2023-07-29T00:24:00;99645.0;;;16.17;90.3
79118;BME280;68523;51.336;-0.846;2023-07-29T00:27:00;99655.0;;;16.08;90.6
79118;BME280;68523;51.336;-0.846;2023-07-29T00:30:00;99655.0;;;16.01;90.8
79118;BME280;68523;51.336;-0.846;2023-07-29T00:33:00;99645.0;;;16.03;90.9
79118;BME280;68523;51.336;-0.846;2023-07-29T00:36:00;99645.0;;;15.96;91.0
79118;BME280;68523;51.336;-0.846;2023-07-29T00:39:00;99635.0;;;15.96;91.2
79118;BME280;68523;51.336;-0.846;2023-07-29T00:42:00;99635.0;;;15.94;91.1
79118;BME280;68523;51.336;-0.846;2023-07-29T00:45:00;99635.0;;;15.93;91.3
79118;BME280;68523;51.336;-0.846;2023-07-29T00:48:01;99635.0;;;15.89;91.2
79118;BME280;68523;51.336;-0.846;2023-07-29T00:51:00;99635.0;;;15.88;91.3
79118;BME280;68523;51.336;-0.846;2023-07-29T00:54:00;99635.0;;;15.86;91.3
79118;BME280;68523;51.336;-0.846;2023-07-29T00:57:00;99635.0;;;15.84;91.4
79118;BME280;68523;51.336;-0.846;2023-07-29T01:00:00;99635.0;;;15.82;91.4
79118;BME280;68523;51.336;-0.846;2023-07-29T01:03:00;99635.0;;;15.79;91.4
79118;BME280;68523;51.336;-0.846;2023-07-29T01:06:09;99635.0;;;15.77;91.2
79118;BME280;68523;51.336;-0.846;2023-07-29T01:09:02;99625.0;;;15.74;91.5
79118;BME280;68523;51.336;-0.846;2023-07-29T01:12:07;99625.0;;;15.76;91.4
79118;BME280;68523;51.336;-0.846;2023-07-29T01:15:07;99615.0;;;15.71;91.6
79118;BME280;68523;51.336;-0.846;2023-07-29T01:18:04;99615.0;;;15.68;91.8
79118;BME280;68523;51.336;-0.846;2023-07-29T01:21:04;99615.0;;;15.65;91.8
79118;BME280;68523;51.336;-0.846;2023-07-29T01:24:00;99615.0;;;15.63;91.9
79118;BME280;68523;51.336;-0.846;2023-07-29T01:27:00;99615.0;;;15.64;91.8
79118;BME280;68523;51.336;-0.846;2023-07-29T01:30:01;99615.0;;;15.61;91.8
79118;BME280;68523;51.336;-0.846;2023-07-29T01:33:04;99615.0;;;15.60;91.7
79118;BME280;68523;51.336;-0.846;2023-07-29T01:36:03;99615.0;;;15.60;92.0
79118;BME280;68523;51.336;-0.846;2023-07-29T01:39:01;99615.0;;;15.64;91.9
79118;BME280;68523;51.336;-0.846;2023-07-29T01:42:00;99605.0;;;15.60;92.0
79118;BME280;68523;51.336;-0.846;2023-07-29T01:45:00;99605.0;;;15.57;92.1
79118;BME280;68523;51.336;-0.846;2023-07-29T01:48:00;99605.0;;;15.60;92.1
79118;BME280;68523;51.336;-0.846;2023-07-29T01:51:00;99595.0;;;15.58;92.2
79118;BME280;68523;51.336;-0.846;2023-07-29T01:54:00;99605.0;;;15.58;92.4
79118;BME280;68523;51.336;-0.846;2023-07-29T01:57:00;99605.0;;;15.56;93.3
79118;BME280;68523;51.336;-0.846;2023-07-29T02:00:01;99595.0;;;15.49;93.6
79118;BME280;68523;51.336;-0.846;2023-07-29T02:03:00;99595.0;;;15.42;93.6
79118;BME280;68523;51.336;-0.846;2023-07-29T02:06:00;99605.0;;;15.40;93.8
79118;BME280;68523;51.336;-0.846;2023-07-29T02:09:00;99595.0;;;15.43;94.5
79118;BME280;68523;51.336;-0.846;2023-07-29T02:12:00;99595.0;;;15.40;94.5
79118;BME280;68523;51.336;-0.846;2023-07-29T02:15:00;99595.0;;;15.38;94.4
79118;BME280;68523;51.336;-0.846;2023-07-29T02:18:00;99585.0;;;15.43;94.4
79118;BME280;68523;51.336;-0.846;2023-07-29T02:21:00;99595.0;;;15.41;94.4
79118;BME280;68523;51.336;-0.846;2023-07-29T02:24:00;99585.0;;;15.39;94.3
79118;BME280;68523;51.336;-0.846;2023-07-29T02:27:00;99585.0;;;15.39;94.4
79118;BME280;68523;51.336;-0.846;2023-07-29T02:30:00;99585.0;;;15.39;94.5
79118;BME280;68523;51.336;-0.846;2023-07-29T02:33:00;99585.0;;;15.39;94.3
79118;BME280;68523;51.336;-0.846;2023-07-29T02:36:00;99585.0;;;15.38;94.5
79118;BME280;68523;51.336;-0.846;2023-07-29T02:39:00;99585.0;;;15.35;94.6
79118;BME280;68523;51.336;-0.846;2023-07-29T02:42:00;99585.0;;;15.35;94.7
79118;BME280;68523;51.336;-0.846;2023-07-29T02:45:00;99585.0;;;15.38;94.9
79118;BME280;68523;51.336;-0.846;2023-07-29T02:48:00;99595.0;;;15.37;94.9
79118;BME280;68523;51.336;-0.846;2023-07-29T02:51:00;99585.0;;;15.35;94.9
79118;BME280;68523;51.336;-0.846;2023-07-29T02:54:00;99585.0;;;15.34;94.9
79118;BME280;68523;51.336;-0.846;2023-07-29T02:57:00;99585.0;;;15.32;95.1
79118;BME280;68523;51.336;-0.846;2023-07-29T03:00:00;99585.0;;;15.30;95.0
79118;BME280;68523;51.336;-0.846;2023-07-29T03:03:00;99585.0;;;15.27;95.1
79118;BME280;68523;51.336;-0.846;2023-07-29T03:06:02;99575.0;;;15.28;95.1
79118;BME280;68523;51.336;-0.846;2023-07-29T03:09:00;99575.0;;;15.27;95.0
79118;BME280;68523;51.336;-0.846;2023-07-29T03:12:00;99575.0;;;15.27;95.1
79118;BME280;68523;51.336;-0.846;2023-07-29T03:15:00;99565.0;;;15.25;95.2
79118;BME280;68523;51.336;-0.846;2023-07-29T03:18:00;99565.0;;;15.22;95.2
79118;BME280;68523;51.336;-0.846;2023-07-29T03:21:00;99565.0;;;15.22;95.2
79118;BME280;68523;51.336;-0.846;2023-07-29T03:24:00;99565.0;;;15.24;94.9
79118;BME280;68523;51.336;-0.846;2023-07-29T03:27:00;99565.0;;;15.25;95.0
79118;BME280;68523;51.336;-0.846;2023-07-29T03:30:00;99565.0;;;15.27;94.7
79118;BME280;68523;51.336;-0.846;2023-07-29T03:33:00;99575.0;;;15.27;94.6
79118;BME280;68523;51.336;-0.846;2023-07-29T03:36:00;99575.0;;;15.27;94.9
79118;BME280;68523;51.336;-0.846;2023-07-29T03:39:00;99575.0;;;15.25;94.7
79118;BME280;68523;51.336;-0.846;2023-07-29T03:42:00;99575.0;;;15.25;94.6
79118;BME280;68523;51.336;-0.846;2023-07-29T03:45:00;99575.0;;;15.29;94.4
79118;BME280;68523;51.336;-0.846;2023-07-29T03:48:00;99575.0;;;15.27;94.7
79118;BME280;68523;51.336;-0.846;2023-07-29T03:51:00;99575.0;;;15.23;94.7
79118;BME280;68523;51.336;-0.846;2023-07-29T03:54:00;99575.0;;;15.26;94.8
79118;BME280;68523;51.336;-0.846;2023-07-29T03:57:00;99575.0;;;15.23;94.9
79118;BME280;68523;51.336;-0.846;2023-07-29T04:00:00;99565.0;;;15.28;94.7
79118;BME280;68523;51.336;-0.846;2023-07-29T04:03:00;99555.0;;;15.25;94.7
79118;BME280;68523;51.336;-0.846;2023-07-29T04:06:00;99565.0;;;15.25;94.7
79118;BME280;68523;51.336;-0.846;2023-07-29T04:09:00;99575.0;;;15.27;94.8
79118;BME280;68523;51.336;-0.846;2023-07-29T04:12:00;99575.0;;;15.26;94.8
79118;BME280;68523;51.336;-0.846;2023-07-29T04:15:00;99575.0;;;15.25;94.8
79118;BME280;68523;51.336;-0.846;2023-07-29T04:18:00;99575.0;;;15.23;94.8
79118;BME280;68523;51.336;-0.846;2023-07-29T04:21:00;99575.0;;;15.25;94.7
79118;BME280;68523;51.336;-0.846;2023-07-29T04:24:00;99575.0;;;15.27;94.7
79118;BME280;68523;51.336;-0.846;2023-07-29T04:27:00;99585.0;;;15.27;94.5
79118;BME280;68523;51.336;-0.846;2023-07-29T04:30:00;99575.0;;;15.27;94.7
79118;BME280;68523;51.336;-0.846;2023-07-29T04:33:00;99575.0;;;15.22;94.6
79118;BME280;68523;51.336;-0.846;2023-07-29T04:36:00;99575.0;;;15.23;94.5
79118;BME280;68523;51.336;-0.846;2023-07-29T04:39:00;99565.0;;;15.24;94.5
79118;BME280;68523;51.336;-0.846;2023-07-29T04:42:00;99565.0;;;15.23;94.3
79118;BME280;68523;51.336;-0.846;2023-07-29T04:45:00;99565.0;;;15.23;94.3
79118;BME280;68523;51.336;-0.846;2023-07-29T04:48:00;99575.0;;;15.25;94.0
79118;BME280;68523;51.336;-0.846;2023-07-29T04:51:00;99565.0;;;15.24;94.2
79118;BME280;68523;51.336;-0.846;2023-07-29T04:54:00;99575.0;;;15.27;94.0
79118;BME280;68523;51.336;-0.846;2023-07-29T04:57:00;99575.0;;;15.25;94.0
79118;BME280;68523;51.336;-0.846;2023-07-29T05:00:00;99585.0;;;15.26;94.2
79118;BME280;68523;51.336;-0.846;2023-07-29T05:03:02;99585.0;;;15.24;94.1
79118;BME280;68523;51.336;-0.846;2023-07-29T05:06:01;99595.0;;;15.26;94.1
79118;BME280;68523;51.336;-0.846;2023-07-29T05:09:13;99595.0;;;15.27;94.1
79118;BME280;68523;51.336;-0.846;2023-07-29T05:12:00;99585.0;;;15.26;94.0
79118;BME280;68523;51.336;-0.846;2023-07-29T05:15:00;99585.0;;;15.27;93.8
79118;BME280;68523;51.336;-0.846;2023-07-29T05:18:00;99585.0;;;15.30;94.0
79118;BME280;68523;51.336;-0.846;2023-07-29T05:21:00;99575.0;;;15.32;93.8
79118;BME280;68523;51.336;-0.846;2023-07-29T05:24:00;99575.0;;;15.35;93.5
79118;BME280;68523;51.336;-0.846;2023-07-29T05:27:00;99575.0;;;15.40;93.3
79118;BME280;68523;51.336;-0.846;2023-07-29T05:30:00;99575.0;;;15.43;93.1
79118;BME280;68523;51.336;-0.846;2023-07-29T05:33:00;99585.0;;;15.49;93.2
79118;BME280;68523;51.336;-0.846;2023-07-29T05:36:00;99585.0;;;15.56;93.0
79118;BME280;68523;51.336;-0.846;2023-07-29T05:39:00;99585.0;;;15.64;92.5
79118;BME280;68523;51.336;-0.846;2023-07-29T05:42:00;99585.0;;;15.67;92.5
79118;BME280;68523;51.336;-0.846;2023-07-29T05:45:00;99585.0;;;15.72;92.2
79118;BME280;68523;51.336;-0.846;2023-07-29T05:48:00;99585.0;;;15.79;92.2
79118;BME280;68523;51.336;-0.846;2023-07-29T05:51:00;99585.0;;;15.78;92.1
79118;BME280;68523;51.336;-0.846;2023-07-29T05:54:00;99585.0;;;15.84;91.7
79118;BME280;68523;51.336;-0.846;2023-07-29T05:57:00;99595.0;;;15.96;91.3
79118;BME280;68523;51.336;-0.846;2023-07-29T06:00:00;99595.0;;;15.86;91.4
79118;BME280;68523;51.336;-0.846;2023-07-29T06:03:00;99595.0;;;15.88;91.1
79118;BME280;68523;51.336;-0.846;2023-07-29T06:06:00;99595.0;;;15.93;91.9
79118;BME280;68523;51.336;-0.846;2023-07-29T06:09:00;99585.0;;;15.79;92.4
79118;BME280;68523;51.336;-0.846;2023-07-29T06:12:00;99585.0;;;15.88;92.2
79118;BME280;68523;51.336;-0.846;2023-07-29T06:15:00;99585.0;;;15.95;92.2
79118;BME280;68523;51.336;-0.846;2023-07-29T06:18:00;99585.0;;;16.06;91.8
79118;BME280;68523;51.336;-0.846;2023-07-29T06:21:00;99585.0;;;16.10;91.5
79118;BME280;68523;51.336;-0.846;2023-07-29T06:24:00;99595.0;;;16.27;91.0
79118;BME280;68523;51.336;-0.846;2023-07-29T06:27:00;99595.0;;;16.29;91.2
79118;BME280;68523;51.336;-0.846;2023-07-29T06:30:00;99585.0;;;16.15;91.1
79118;BME280;68523;51.336;-0.846;2023-07-29T06:33:00;99585.0;;;16.24;91.3
79118;BME280;68523;51.336;-0.846;2023-07-29T06:36:00;99595.0;;;16.24;92.1
79118;BME280;68523;51.336;-0.846;2023-07-29T06:39:00;99595.0;;;16.10;91.9
79118;BME280;68523;51.336;-0.846;2023-07-29T06:42:00;99595.0;;;16.17;91.9
79118;BME280;68523;51.336;-0.846;2023-07-29T06:45:00;99595.0;;;16.33;91.9
79118;BME280;68523;51.336;-0.846;2023-07-29T06:48:00;99595.0;;;16.35;91.6
79118;BME280;68523;51.336;-0.846;2023-07-29T06:51:00;99595.0;;;16.43;91.6
79118;BME280;68523;51.336;-0.846;2023-07-29T06:54:00;99595.0;;;16.43;91.6
79118;BME280;68523;51.336;-0.846;2023-07-29T06:57:00;99595.0;;;16.69;91.0
79118;BME280;68523;51.336;-0.846;2023-07-29T07:00:00;99605.0;;;16.65;91.0
79118;BME280;68523;51.336;-0.846;2023-07-29T07:03:00;99605.0;;;16.65;90.9
79118;BME280;68523;51.336;-0.846;2023-07-29T07:06:00;99615.0;;;16.55;91.3
79118;BME280;68523;51.336;-0.846;2023-07-29T07:09:00;99605.0;;;16.57;92.0
79118;BME280;68523;51.336;-0.846;2023-07-29T07:12:00;99615.0;;;16.44;91.7
79118;BME280;68523;51.336;-0.846;2023-07-29T07:15:00;99605.0;;;16.62;91.5
79118;BME280;68523;51.336;-0.846;2023-07-29T07:18:00;99605.0;;;16.79;91.4
79118;BME280;68523;51.336;-0.846;2023-07-29T07:21:00;99605.0;;;16.90;90.2
79118;BME280;68523;51.336;-0.846;2023-07-29T07:24:00;99595.0;;;16.81;90.3
79118;BME280;68523;51.336;-0.846;2023-07-29T07:27:00;99595.0;;;17.04;90.1
79118;BME280;68523;51.336;-0.846;2023-07-29T07:30:00;99595.0;;;17.19;89.5
79118;BME280;68523;51.336;-0.846;2023-07-29T07:33:00;99595.0;;;16.99;89.2
79118;BME280;68523;51.336;-0.846;2023-07-29T07:36:00;99595.0;;;17.12;88.8
79118;BME280;68523;51.336;-0.846;2023-07-29T07:39:00;99605.0;;;17.14;89.3
79118;BME280;68523;51.336;-0.846;2023-07-29T07:42:00;99605.0;;;17.20;89.0
79118;BME280;68523;51.336;-0.846;2023-07-29T07:45:00;99595.0;;;17.22;88.7
79118;BME280;68523;51.336;-0.846;2023-07-29T07:48:00;99605.0;;;17.21;88.4
79118;BME280;68523;51.336;-0.846;2023-07-29T07:51:00;99605.0;;;17.73;87.0
79118;BME280;68523;51.336;-0.846;2023-07-29T07:54:00;99595.0;;;18.04;85.2
79118;BME280;68523;51.336;-0.846;2023-07-29T07:57:00;99605.0;;;18.53;80.5
79118;BME280;68523;51.336;-0.846;2023-07-29T08:00:00;99605.0;;;17.93;82.8
79118;BME280;68523;51.336;-0.846;2023-07-29T08:03:00;99605.0;;;18.14;81.0
79118;BME280;68523;51.336;-0.846;2023-07-29T08:06:00;99605.0;;;19.62;76.4
79118;BME280;68523;51.336;-0.846;2023-07-29T08:09:00;99605.0;;;18.02;79.3
79118;BME280;68523;51.336;-0.846;2023-07-29T08:12:00;99615.0;;;18.28;80.1
79118;BME280;68523;51.336;-0.846;2023-07-29T08:15:00;99615.0;;;18.27;80.3
79118;BME280;68523;51.336;-0.846;2023-07-29T08:18:00;99615.0;;;18.51;79.9
79118;BME280;68523;51.336;-0.846;2023-07-29T08:21:00;99615.0;;;19.26;74.4
79118;BME280;68523;51.336;-0.846;2023-07-29T08:24:00;99615.0;;;19.66;73.7
79118;BME280;68523;51.336;-0.846;2023-07-29T08:27:00;99615.0;;;20.04;70.7
79118;BME280;68523;51.336;-0.846;2023-07-29T08:30:00;99615.0;;;20.46;70.1
79118;BME280;68523;51.336;-0.846;2023-07-29T08:33:00;99615.0;;;20.69;69.6
79118;BME280;68523;51.336;-0.846;2023-07-29T08:36:00;99605.0;;;21.56;67.0
79118;BME280;68523;51.336;-0.846;2023-07-29T08:39:00;99615.0;;;20.78;68.1
79118;BME280;68523;51.336;-0.846;2023-07-29T08:42:02;99615.0;;;21.07;66.2
79118;BME280;68523;51.336;-0.846;2023-07-29T08:45:06;99605.0;;;21.12;65.4
79118;BME280;68523;51.336;-0.846;2023-07-29T08:48:02;99605.0;;;20.58;67.4
79118;BME280;68523;51.336;-0.846;2023-07-29T08:51:03;99615.0;;;19.15;72.4
79118;BME280;68523;51.336;-0.846;2023-07-29T08:54:01;99615.0;;;19.05;73.8
79118;BME280;68523;51.336;-0.846;2023-07-29T08:57:00;99615.0;;;18.67;73.8
79118;BME280;68523;51.336;-0.846;2023-07-29T09:00:01;99615.0;;;19.07;73.5
79118;BME280;68523;51.336;-0.846;2023-07-29T09:03:00;99615.0;;;20.79;66.4
79118;BME280;68523;51.336;-0.846;2023-07-29T09:06:02;99615.0;;;19.61;71.4
79118;BME280;68523;51.336;-0.846;2023-07-29T09:09:00;99615.0;;;18.84;73.0
79118;BME280;68523;51.336;-0.846;2023-07-29T09:12:00;99625.0;;;18.97;73.4
79118;BME280;68523;51.336;-0.846;2023-07-29T09:15:00;99625.0;;;20.47;67.7
79118;BME280;68523;51.336;-0.846;2023-07-29T09:18:09;99615.0;;;19.83;70.5
79118;BME280;68523;51.336;-0.846;2023-07-29T09:21:00;99615.0;;;20.38;69.9
79118;BME280;68523;51.336;-0.846;2023-07-29T09:24:03;99615.0;;;19.95;67.9
79118;BME280;68523;51.336;-0.846;2023-07-29T09:27:00;99615.0;;;20.99;65.2
79118;BME280;68523;51.336;-0.846;2023-07-29T09:30:00;99615.0;;;21.23;62.6
79118;BME280;68523;51.336;-0.846;2023-07-29T09:33:00;99615.0;;;20.52;66.1
79118;BME280;68523;51.336;-0.846;2023-07-29T09:36:00;99625.0;;;19.46;69.2
79118;BME280;68523;51.336;-0.846;2023-07-29T09:39:01;99625.0;;;19.07;67.5
79118;BME280;68523;51.336;-0.846;2023-07-29T09:42:00;99625.0;;;19.09;69.5
79118;BME280;68523;51.336;-0.846;2023-07-29T09:45:00;99625.0;;;20.15;66.8
79118;BME280;68523;51.336;-0.846;2023-07-29T09:48:00;99635.0;;;20.63;66.4
79118;BME280;68523;51.336;-0.846;2023-07-29T09:51:09;99625.0;;;21.33;63.7
79118;BME280;68523;51.336;-0.846;2023-07-29T09:54:02;99625.0;;;22.07;60.9
79118;BME280;68523;51.336;-0.846;2023-07-29T09:57:00;99625.0;;;21.19;63.5
79118;BME280;68523;51.336;-0.846;2023-07-29T10:00:00;99625.0;;;19.94;64.5
79118;BME280;68523;51.336;-0.846;2023-07-29T10:03:00;99625.0;;;20.06;64.9
79118;BME280;68523;51.336;-0.846;2023-07-29T10:06:01;99625.0;;;19.89;66.3
79118;BME280;68523;51.336;-0.846;2023-07-29T10:09:00;99625.0;;;20.21;63.6
79118;BME280;68523;51.336;-0.846;2023-07-29T10:12:00;99625.0;;;20.11;64.5
79118;BME280;68523;51.336;-0.846;2023-07-29T10:15:03;99625.0;;;20.19;65.8
79118;BME280;68523;51.336;-0.846;2023-07-29T10:18:01;99635.0;;;19.80;64.3
79118;BME280;68523;51.336;-0.846;2023-07-29T10:21:01;99635.0;;;19.61;65.8
79118;BME280;68523;51.336;-0.846;2023-07-29T10:24:03;99635.0;;;19.63;66.4
79118;BME280;68523;51.336;-0.846;2023-07-29T10:27:01;99635.0;;;19.70;66.2
79118;BME280;68523;51.336;-0.846;2023-07-29T10:30:00;99645.0;;;19.43;65.9
79118;BME280;68523;51.336;-0.846;2023-07-29T10:33:02;99655.0;;;19.37;65.9
79118;BME280;68523;51.336;-0.846;2023-07-29T10:36:01;99655.0;;;19.41;66.6
79118;BME280;68523;51.336;-0.846;2023-07-29T10:39:00;99655.0;;;19.17;65.8
79118;BME280;68523;51.336;-0.846;2023-07-29T10:42:02;99655.0;;;19.21;67.7
79118;BME280;68523;51.336;-0.846;2023-07-29T10:45:18;99655.0;;;19.39;66.6
79118;BME280;68523;51.336;-0.846;2023-07-29T10:48:00;99655.0;;;19.45;64.9
79118;BME280;68523;51.336;-0.846;2023-07-29T10:54:01;99655.0;;;21.15;59.8
79118;BME280;68523;51.336;-0.846;2023-07-29T10:57:00;99645.0;;;21.85;57.7
79118;BME280;68523;51.336;-0.846;2023-07-29T11:00:02;99645.0;;;22.18;56.7
79118;BME280;68523;51.336;-0.846;2023-07-29T11:03:02;99645.0;;;21.21;59.7
79118;BME280;68523;51.336;-0.846;2023-07-29T11:06:04;99645.0;;;20.33;61.6
79118;BME280;68523;51.336;-0.846;2023-07-29T11:09:00;99645.0;;;20.21;61.9
79118;BME280;68523;51.336;-0.846;2023-07-29T11:12:05;99655.0;;;20.36;62.5
79118;BME280;68523;51.336;-0.846;2023-07-29T11:15:03;99655.0;;;20.00;62.1
79118;BME280;68523;51.336;-0.846;2023-07-29T11:18:01;99655.0;;;20.90;59.2
79118;BME280;68523;51.336;-0.846;2023-07-29T11:21:02;99655.0;;;21.13;59.1
79118;BME280;68523;51.336;-0.846;2023-07-29T11:24:00;99655.0;;;21.05;59.2
79118;BME280;68523;51.336;-0.846;2023-07-29T11:27:00;99645.0;;;21.44;57.8
79118;BME280;68523;51.336;-0.846;2023-07-29T11:30:02;99645.0;;;20.67;59.2
79118;BME280;68523;51.336;-0.846;2023-07-29T11:33:00;99645.0;;;21.97;58.4
79118;BME280;68523;51.336;-0.846;2023-07-29T11:36:00;99655.0;;;21.33;58.1
79118;BME280;68523;51.336;-0.846;2023-07-29T11:39:09;99655.0;;;20.75;59.5
79118;BME280;68523;51.336;-0.846;2023-07-29T11:42:00;99655.0;;;21.64;57.4
79118;BME280;68523;51.336;-0.846;2023-07-29T11:45:00;99655.0;;;22.31;59.0
79118;BME280;68523;51.336;-0.846;2023-07-29T11:48:00;99655.0;;;22.46;56.6
79118;BME280;68523;51.336;-0.846;2023-07-29T11:51:00;99665.0;;;22.32;54.0
79118;BME280;68523;51.336;-0.846;2023-07-29T11:54:00;99665.0;;;22.50;53.8
79118;BME280;68523;51.336;-0.846;2023-07-29T11:57:00;99665.0;;;22.59;55.6
79118;BME280;68523;51.336;-0.846;2023-07-29T12:00:01;99665.0;;;22.81;53.3
79118;BME280;68523;51.336;-0.846;2023-07-29T12:03:00;99665.0;;;22.59;53.5
79118;BME280;68523;51.336;-0.846;2023-07-29T12:06:00;99665.0;;;22.31;54.7
79118;BME280;68523;51.336;-0.846;2023-07-29T12:09:00;99675.0;;;22.24;53.6
79118;BME280;68523;51.336;-0.846;2023-07-29T12:12:01;99665.0;;;22.70;52.8
79118;BME280;68523;51.336;-0.846;2023-07-29T12:15:00;99665.0;;;22.96;53.1
79118;BME280;68523;51.336;-0.846;2023-07-29T12:18:00;99665.0;;;22.64;52.1
79118;BME280;68523;51.336;-0.846;2023-07-29T12:21:00;99665.0;;;21.76;53.2
79118;BME280;68523;51.336;-0.846;2023-07-29T12:24:02;99665.0;;;21.51;54.1
79118;BME280;68523;51.336;-0.846;2023-07-29T12:27:00;99675.0;;;21.26;55.2
79118;BME280;68523;51.336;-0.846;2023-07-29T12:30:01;99675.0;;;21.29;56.6
79118;BME280;68523;51.336;-0.846;2023-07-29T12:33:00;99675.0;;;20.95;56.7
79118;BME280;68523;51.336;-0.846;2023-07-29T12:36:00;99675.0;;;21.81;57.5
79118;BME280;68523;51.336;-0.846;2023-07-29T12:39:00;99685.0;;;21.14;56.5
79118;BME280;68523;51.336;-0.846;2023-07-29T12:42:01;99675.0;;;21.75;55.4
79118;BME280;68523;51.336;-0.846;2023-07-29T12:45:00;99675.0;;;21.85;54.6
79118;BME280;68523;51.336;-0.846;2023-07-29T12:48:00;99675.0;;;22.87;52.5
79118;BME280;68523;51.336;-0.846;2023-07-29T12:51:00;99665.0;;;22.82;50.5
79118;BME280;68523;51.336;-0.846;2023-07-29T12:54:00;99665.0;;;23.23;48.9
79118;BME280;68523;51.336;-0.846;2023-07-29T12:57:00;99665.0;;;22.99;48.8
79118;BME280;68523;51.336;-0.846;2023-07-29T13:00:00;99675.0;;;22.58;48.8
79118;BME280;68523;51.336;-0.846;2023-07-29T13:03:00;99675.0;;;23.18;48.1
79118;BME280;68523;51.336;-0.846;2023-07-29T13:06:00;99675.0;;;23.42;50.8
79118;BME280;68523;51.336;-0.846;2023-07-29T13:09:00;99675.0;;;22.75;49.6
79118;BME280;68523;51.336;-0.846;2023-07-29T13:12:00;99665.0;;;23.40;48.6
79118;BME280;68523;51.336;-0.846;2023-07-29T13:15:00;99665.0;;;23.06;49.3
79118;BME280;68523;51.336;-0.846;2023-07-29T13:18:00;99675.0;;;22.08;50.0
79118;BME280;68523;51.336;-0.846;2023-07-29T13:21:00;99675.0;;;21.54;51.0
79118;BME280;68523;51.336;-0.846;2023-07-29T13:24:00;99665.0;;;21.83;51.5
79118;BME280;68523;51.336;-0.846;2023-07-29T13:27:00;99675.0;;;21.72;51.9
79118;BME280;68523;51.336;-0.846;2023-07-29T13:30:00;99675.0;;;21.70;52.3
79118;BME280;68523;51.336;-0.846;2023-07-29T13:33:00;99675.0;;;21.78;53.5
79118;BME280;68523;51.336;-0.846;2023-07-29T13:36:00;99685.0;;;21.29;53.2
79118;BME280;68523;51.336;-0.846;2023-07-29T13:39:00;99685.0;;;21.26;54.4
79118;BME280;68523;51.336;-0.846;2023-07-29T13:42:00;99685.0;;;21.10;55.0
79118;BME280;68523;51.336;-0.846;2023-07-29T13:45:00;99685.0;;;20.82;56.4
79118;BME280;68523;51.336;-0.846;2023-07-29T13:48:00;99695.0;;;20.77;57.8
79118;BME280;68523;51.336;-0.846;2023-07-29T13:51:00;99695.0;;;20.41;60.5
79118;BME280;68523;51.336;-0.846;2023-07-29T13:54:00;99705.0;;;20.06;62.4
79118;BME280;68523;51.336;-0.846;2023-07-29T13:57:00;99705.0;;;20.04;64.8
79118;BME280;68523;51.336;-0.846;2023-07-29T14:00:00;99715.0;;;21.19;61.4
79118;BME280;68523;51.336;-0.846;2023-07-29T14:03:00;99705.0;;;21.21;60.3
79118;BME280;68523;51.336;-0.846;2023-07-29T14:06:00;99705.0;;;22.53;56.2
79118;BME280;68523;51.336;-0.846;2023-07-29T14:09:00;99705.0;;;22.99;54.2
79118;BME280;68523;51.336;-0.846;2023-07-29T14:12:00;99705.0;;;23.15;54.2
79118;BME280;68523;51.336;-0.846;2023-07-29T14:15:00;99715.0;;;23.34;53.6
79118;BME280;68523;51.336;-0.846;2023-07-29T14:18:00;99705.0;;;22.63;54.1
79118;BME280;68523;51.336;-0.846;2023-07-29T14:21:00;99705.0;;;23.03;53.0
79118;BME280;68523;51.336;-0.846;2023-07-29T14:24:00;99705.0;;;23.02;52.3
79118;BME280;68523;51.336;-0.846;2023-07-29T14:27:00;99705.0;;;21.59;54.9
79118;BME280;68523;51.336;-0.846;2023-07-29T14:30:00;99695.0;;;21.41;54.7
79118;BME280;68523;51.336;-0.846;2023-07-29T14:33:00;99705.0;;;21.41;55.3
79118;BME280;68523;51.336;-0.846;2023-07-29T14:36:00;99705.0;;;21.37;54.7
79118;BME280;68523;51.336;-0.846;2023-07-29T14:39:00;99705.0;;;21.50;54.3
79118;BME280;68523;51.336;-0.846;2023-07-29T14:42:00;99715.0;;;21.57;53.3
79118;BME280;68523;51.336;-0.846;2023-07-29T14:45:00;99715.0;;;21.46;53.2
79118;BME280;68523;51.336;-0.846;2023-07-29T14:48:00;99715.0;;;21.48;53.0
79118;BME280;68523;51.336;-0.846;2023-07-29T14:51:00;99715.0;;;21.87;52.5
79118;BME280;68523;51.336;-0.846;2023-07-29T14:54:00;99715.0;;;21.61;54.0
79118;BME280;68523;51.336;-0.846;2023-07-29T14:57:00;99715.0;;;21.34;53.3
79118;BME280;68523;51.336;-0.846;2023-07-29T15:00:00;99715.0;;;21.34;53.9
79118;BME280;68523;51.336;-0.846;2023-07-29T15:03:00;99715.0;;;21.44;53.2
79118;BME280;68523;51.336;-0.846;2023-07-29T15:06:00;99715.0;;;21.54;54.1
79118;BME280;68523;51.336;-0.846;2023-07-29T15:09:00;99715.0;;;21.48;54.3
79118;BME280;68523;51.336;-0.846;2023-07-29T15:12:00;99715.0;;;21.82;53.4
79118;BME280;68523;51.336;-0.846;2023-07-29T15:15:00;99715.0;;;21.73;53.9
79118;BME280;68523;51.336;-0.846;2023-07-29T15:18:00;99715.0;;;21.65;54.1
79118;BME280;68523;51.336;-0.846;2023-07-29T15:21:00;99715.0;;;21.87;54.9
79118;BME280;68523;51.336;-0.846;2023-07-29T15:24:00;99715.0;;;22.01;52.7
79118;BME280;68523;51.336;-0.846;2023-07-29T15:27:00;99715.0;;;22.77;52.0
79118;BME280;68523;51.336;-0.846;2023-07-29T15:30:00;99715.0;;;23.09;51.0
79118;BME280;68523;51.336;-0.846;2023-07-29T15:33:00;99715.0;;;22.11;51.5
79118;BME280;68523;51.336;-0.846;2023-07-29T15:36:00;99715.0;;;23.17;48.0
79118;BME280;68523;51.336;-0.846;2023-07-29T15:39:00;99715.0;;;23.59;46.9
79118;BME280;68523;51.336;-0.846;2023-07-29T15:42:00;99715.0;;;22.67;48.0
79118;BME280;68523;51.336;-0.846;2023-07-29T15:45:00;99715.0;;;22.11;49.5
79118;BME280;68523;51.336;-0.846;2023-07-29T15:48:00;99715.0;;;22.64;49.9
79118;BME280;68523;51.336;-0.846;2023-07-29T15:51:00;99715.0;;;22.48;50.5
79118;BME280;68523;51.336;-0.846;2023-07-29T15:54:00;99715.0;;;21.78;51.7
79118;BME280;68523;51.336;-0.846;2023-07-29T15:57:00;99715.0;;;21.39;53.6
79118;BME280;68523;51.336;-0.846;2023-07-29T16:00:00;99725.0;;;21.19;54.2
79118;BME280;68523;51.336;-0.846;2023-07-29T16:03:01;99725.0;;;21.06;55.0
79118;BME280;68523;51.336;-0.846;2023-07-29T16:06:00;99725.0;;;20.95;55.6